Time;durP1;ratioP1;P1;durP2;ratioP2;P2;SDS_P1;SDS_P2;PMS_P1;PMS_P2;Temp;Humidity;BMP_temperature;BMP_pressure;BME280_temperature;BME280_humidity;BME280_pressure;Samples;Min_cycle;Max_cycle;Signal;HPM_P1;HPM_P2
2023/09/27 00:05:29;;;;;;;;;;;15.80;99.90;;;;;;12551625;28;20279;-34
2023/09/27 00:11:31;;;;;;;;;;;15.80;99.90;;;;;;12551508;28;20015;-34
2023/09/27 00:17:33;;;;;;;;;;;15.80;99.90;;;;;;12543780;28;19924;-34
2023/09/27 00:23:35;;;;;;;;;;;15.80;99.90;;;;;;12530628;28;19943;-34
2023/09/27 00:29:37;;;;;;;;;;;15.70;99.90;;;;;;12554348;28;20014;-34
2023/09/27 00:35:39;;;;;;;;;;;15.60;99.90;;;;;;12558213;28;20555;-34
2023/09/27 00:41:41;;;;;;;;;;;15.50;99.90;;;;;;12552451;28;19932;-34
2023/09/27 00:47:44;;;;;;;;;;;15.40;99.90;;;;;;12555487;28;20315;-35
2023/09/27 00:53:47;;;;;;;;;;;15.40;99.90;;;;;;12553793;28;20443;-34
2023/09/27 00:59:50;;;;;;;;;;;15.50;99.90;;;;;;12539481;28;20269;-34
2023/09/27 01:05:52;;;;;;;;;;;15.50;99.90;;;;;;12546464;28;20316;-34
2023/09/27 01:11:54;;;;;;;;;;;15.50;99.90;;;;;;12531356;28;19939;-34
2023/09/27 01:17:56;;;;;;;;;;;15.30;99.90;;;;;;12538548;28;19992;-34
2023/09/27 01:23:58;;;;;;;;;;;15.40;99.90;;;;;;12543185;28;20344;-34
2023/09/27 01:30:00;;;;;;;;;;;15.30;99.90;;;;;;12533721;28;19954;-34
2023/09/27 01:36:03;;;;;;;;;;;15.30;99.90;;;;;;12533486;28;20319;-34
2023/09/27 01:42:05;;;;;;;;;;;15.30;99.90;;;;;;12548980;28;20066;-34
2023/09/27 01:48:06;;;;;;;;;;;15.20;99.90;;;;;;12565394;28;19925;-34
2023/09/27 01:54:08;;;;;;;;;;;15.20;99.90;;;;;;12558256;28;19940;-34
2023/09/27 02:00:11;;;;;;;;;;;15.20;99.90;;;;;;12553475;28;19989;-34
2023/09/27 02:06:12;;;;;;;;;;;15.10;99.90;;;;;;12543636;28;19975;-34
2023/09/27 02:12:14;;;;;;;;;;;14.90;99.90;;;;;;12562124;28;19960;-34
2023/09/27 02:18:16;;;;;;;;;;;14.40;99.90;;;;;;12562352;28;20039;-33
2023/09/27 02:24:18;;;;;;;;;;;14.30;99.90;;;;;;12559124;28;19985;-34
2023/09/27 02:30:20;;;;;;;;;;;14.40;99.90;;;;;;12558601;28;20414;-34
2023/09/27 02:36:22;;;;;;;;;;;14.40;99.90;;;;;;12557489;28;19974;-34
2023/09/27 02:42:23;;;;;;;;;;;14.50;99.90;;;;;;12558167;28;19973;-34
2023/09/27 02:48:25;;;;;;;;;;;14.60;99.90;;;;;;12567033;28;19935;-34
2023/09/27 02:54:27;;;;;;;;;;;14.70;99.90;;;;;;12548057;28;19933;-34
2023/09/27 03:00:29;;;;;;;;;;;14.70;99.90;;;;;;12552388;28;20003;-34
2023/09/27 03:06:31;;;;;;;;;;;14.70;99.90;;;;;;12559456;28;20486;-34
2023/09/27 03:12:32;;;;;;;;;;;14.70;99.90;;;;;;12564471;28;19928;-34
2023/09/27 03:18:34;;;;;;;;;;;14.70;99.90;;;;;;12560018;28;20376;-34
2023/09/27 03:24:36;;;;;;;;;;;14.60;99.90;;;;;;12563128;28;20475;-34
2023/09/27 03:30:40;;;;;;;;;;;14.40;99.90;;;;;;12565186;28;20395;-34
2023/09/27 03:36:44;;;;;;;;;;;14.40;99.90;;;;;;12547403;28;19932;-34
2023/09/27 03:42:46;;;;;;;;;;;14.20;99.90;;;;;;12551451;28;19928;-34
2023/09/27 03:48:48;;;;;;;;;;;14.20;99.90;;;;;;12538356;28;20508;-33
2023/09/27 03:54:49;;;;;;;;;;;14.20;99.90;;;;;;12560304;28;20271;-34
2023/09/27 04:00:51;;;;;;;;;;;14.10;99.90;;;;;;12547419;28;19986;-34
2023/09/27 04:06:53;;;;;;;;;;;14.20;99.90;;;;;;12549170;28;20376;-34
2023/09/27 04:12:55;;;;;;;;;;;14.20;99.90;;;;;;12561911;28;20307;-34
2023/09/27 04:18:57;;;;;;;;;;;14.20;99.90;;;;;;12545949;28;20015;-34
2023/09/27 04:24:59;;;;;;;;;;;14.20;99.90;;;;;;12554401;28;20019;-33
2023/09/27 04:31:02;;;;;;;;;;;14.20;99.90;;;;;;12547079;28;19932;-34
2023/09/27 04:37:04;;;;;;;;;;;14.20;99.90;;;;;;12542310;28;20345;-34
2023/09/27 04:43:06;;;;;;;;;;;14.20;99.90;;;;;;12531801;28;19948;-34
2023/09/27 04:49:07;;;;;;;;;;;14.20;99.90;;;;;;12546483;28;20016;-33
2023/09/27 04:55:09;;;;;;;;;;;14.20;99.90;;;;;;12545203;28;19964;-34
2023/09/27 05:01:11;;;;;;;;;;;14.20;99.90;;;;;;12548738;28;20559;-33
2023/09/27 05:07:16;;;;;;;;;;;14.00;99.90;;;;;;12553424;28;20403;-34
2023/09/27 05:13:21;;;;;;;;;;;13.70;99.90;;;;;;12547378;28;20023;-34
2023/09/27 05:19:23;;;;;;;;;;;13.80;99.90;;;;;;12560448;28;19929;-34
2023/09/27 05:25:25;;;;;;;;;;;13.60;99.90;;;;;;12567921;28;19929;-34
2023/09/27 05:31:26;;;;;;;;;;;13.60;99.90;;;;;;12549351;28;20387;-34
2023/09/27 05:37:28;;;;;;;;;;;13.40;99.90;;;;;;12559540;28;19967;-33
2023/09/27 05:43:30;;;;;;;;;;;13.20;99.90;;;;;;12549929;28;20624;-34
2023/09/27 05:49:32;;;;;;;;;;;13.50;99.90;;;;;;12560903;28;19935;-34
2023/09/27 05:55:34;;;;;;;;;;;13.60;99.90;;;;;;12551985;28;19928;-34
2023/09/27 06:01:37;;;;;;;;;;;13.70;99.90;;;;;;12516923;28;19935;-34
2023/09/27 06:07:39;;;;;;;;;;;13.90;99.90;;;;;;12541364;28;20287;-33
2023/09/27 06:13:40;;;;;;;;;;;14.00;99.90;;;;;;12547588;28;20480;-34
2023/09/27 06:19:42;;;;;;;;;;;13.70;99.90;;;;;;12558642;28;20292;-33
2023/09/27 06:25:46;;;;;;;;;;;13.60;99.90;;;;;;12564522;28;19947;-34
2023/09/27 06:31:49;;;;;;;;;;;14.00;99.90;;;;;;12541266;28;19982;-34
2023/09/27 06:37:51;;;;;;;;;;;13.90;99.90;;;;;;12558826;28;19924;-34
2023/09/27 06:43:53;;;;;;;;;;;14.10;99.90;;;;;;12531532;28;20875;-34
2023/09/27 06:49:58;;;;;;;;;;;14.30;99.90;;;;;;12560408;28;19928;-34
2023/09/27 06:56:00;;;;;;;;;;;14.40;99.90;;;;;;12556505;28;20144;-33
2023/09/27 07:02:02;;;;;;;;;;;14.50;99.90;;;;;;12548858;28;19936;-34
2023/09/27 07:08:03;;;;;;;;;;;14.60;99.90;;;;;;12552908;28;20294;-34
2023/09/27 07:14:06;;;;;;;;;;;14.60;99.90;;;;;;12557287;28;20280;-34
2023/09/27 07:26:29;;;;;;;;;;;14.70;99.90;;;;;;12553329;28;20305;-34
2023/09/27 07:32:31;;;;;;;;;;;14.80;99.90;;;;;;12547181;28;20284;-34
2023/09/27 07:38:33;;;;;;;;;;;15.00;99.90;;;;;;12542975;28;19929;-34
2023/09/27 07:44:39;;;;;;;;;;;15.30;99.90;;;;;;12527923;28;19929;-35
2023/09/27 07:50:41;;;;;;;;;;;15.90;99.90;;;;;;12559664;28;20596;-34
2023/09/27 07:56:43;;;;;;;;;;;16.10;99.90;;;;;;12543838;28;19936;-34
2023/09/27 08:02:46;;;;;;;;;;;16.10;99.90;;;;;;12555954;28;19935;-33
2023/09/27 08:08:48;;;;;;;;;;;16.10;99.90;;;;;;12549242;28;20411;-34
2023/09/27 08:14:50;;;;;;;;;;;16.40;99.90;;;;;;12561149;28;20465;-34
2023/09/27 08:20:54;;;;;;;;;;;16.50;99.90;;;;;;12514550;28;20298;-34
2023/09/27 08:26:56;;;;;;;;;;;16.70;99.90;;;;;;12549081;28;19925;-34
2023/09/27 08:32:58;;;;;;;;;;;16.80;99.90;;;;;;12556363;28;20003;-34
2023/09/27 08:39:00;;;;;;;;;;;17.30;99.90;;;;;;12538060;28;19940;-34
2023/09/27 08:45:06;;;;;;;;;;;17.60;99.90;;;;;;12543586;28;19936;-36
2023/09/27 08:51:08;;;;;;;;;;;17.70;99.90;;;;;;12555154;28;20022;-35
2023/09/27 08:57:11;;;;;;;;;;;18.10;99.90;;;;;;12548457;28;20501;-35
2023/09/27 09:03:13;;;;;;;;;;;18.70;99.90;;;;;;12565047;28;19932;-34
2023/09/27 09:09:15;;;;;;;;;;;19.10;99.90;;;;;;12557291;28;19928;-35
2023/09/27 09:15:35;;;;;;;;;;;19.40;99.90;;;;;;12547862;28;19933;-35
2023/09/27 09:21:38;;;;;;;;;;;19.30;99.90;;;;;;12541622;28;19959;-35
2023/09/27 09:27:40;;;;;;;;;;;19.00;99.90;;;;;;12570787;28;20001;-34
2023/09/27 09:33:52;;;;;;;;;;;18.90;99.90;;;;;;12552068;28;20501;-35
2023/09/27 09:40:14;;;;;;;;;;;19.10;99.90;;;;;;12556039;28;19939;-36
2023/09/27 09:46:23;;;;;;;;;;;19.40;99.90;;;;;;12557376;28;19967;-35
2023/09/27 09:52:27;;;;;;;;;;;19.80;98.50;;;;;;12561815;28;20395;-35
2023/09/27 09:58:33;;;;;;;;;;;20.50;99.90;;;;;;12527512;28;20055;-35
2023/09/27 10:04:35;;;;;;;;;;;20.70;71.90;;;;;;12539456;28;19928;-35
2023/09/27 10:10:38;;;;;;;;;;;20.50;30.10;;;;;;12561195;28;19928;-35
2023/09/27 10:16:40;;;;;;;;;;;20.40;34.70;;;;;;12557491;28;19936;-35
2023/09/27 10:22:44;;;;;;;;;;;20.20;52.60;;;;;;12542636;28;19954;-35
2023/09/27 10:29:07;;;;;;;;;;;20.00;59.90;;;;;;12558579;28;20336;-35
2023/09/27 10:35:21;;;;;;;;;;;19.90;56.10;;;;;;12564164;28;19929;-35
2023/09/27 10:41:33;;;;;;;;;;;19.80;43.10;;;;;;12564524;28;19928;-35
2023/09/27 10:47:35;;;;;;;;;;;20.10;99.90;;;;;;12543246;28;20015;-35
2023/09/27 10:53:37;;;;;;;;;;;20.90;45.30;;;;;;12560869;28;19951;-35
2023/09/27 10:59:39;;;;;;;;;;;21.50;1.00;;;;;;12550406;28;20485;-35
2023/09/27 11:05:41;;;;;;;;;;;21.90;1.00;;;;;;12551701;28;20435;-36
2023/09/27 11:11:46;;;;;;;;;;;22.30;1.00;;;;;;12551802;28;20406;-35
2023/09/27 11:17:53;;;;;;;;;;;22.30;1.00;;;;;;12543090;28;20292;-35
2023/09/27 11:23:55;;;;;;;;;;;22.50;1.00;;;;;;12526986;28;19974;-36
2023/09/27 11:29:57;;;;;;;;;;;22.50;1.00;;;;;;12555224;28;20219;-35
2023/09/27 11:36:03;;;;;;;;;;;22.40;1.00;;;;;;12563067;28;19935;-35
2023/09/27 11:42:05;;;;;;;;;;;22.60;1.00;;;;;;12554500;28;19924;-36
2023/09/27 11:48:07;;;;;;;;;;;22.90;1.00;;;;;;12564061;28;19934;-35
2023/09/27 11:54:09;;;;;;;;;;;23.20;1.00;;;;;;12546822;28;19936;-35
2023/09/27 12:00:17;;;;;;;;;;;23.50;1.00;;;;;;12529266;28;19946;-36
2023/09/27 12:06:18;;;;;;;;;;;23.70;1.00;;;;;;12542004;28;19928;-35
2023/09/27 12:12:21;;;;;;;;;;;24.00;1.00;;;;;;12562966;28;19933;-35
2023/09/27 12:18:23;;;;;;;;;;;23.90;1.00;;;;;;12538921;28;20403;-35
2023/09/27 12:24:25;;;;;;;;;;;23.90;1.00;;;;;;12549133;28;19955;-35
2023/09/27 12:30:27;;;;;;;;;;;23.80;1.00;;;;;;12547754;28;20576;-37
2023/09/27 12:36:29;;;;;;;;;;;23.90;1.00;;;;;;12549388;28;19971;-35
2023/09/27 12:42:31;;;;;;;;;;;23.70;1.00;;;;;;12556495;28;20292;-35
2023/09/27 12:48:33;;;;;;;;;;;23.40;1.00;;;;;;12553786;28;19982;-36
2023/09/27 12:54:36;;;;;;;;;;;23.40;1.00;;;;;;12552129;28;19940;-36
2023/09/27 13:00:38;;;;;;;;;;;23.70;1.00;;;;;;12558576;28;19929;-35
2023/09/27 13:06:40;;;;;;;;;;;23.50;1.00;;;;;;12550203;28;19932;-35
2023/09/27 13:12:41;;;;;;;;;;;23.50;1.00;;;;;;12553016;28;20463;-35
2023/09/27 13:18:45;;;;;;;;;;;23.50;1.00;;;;;;12556173;28;20461;-35
2023/09/27 13:24:47;;;;;;;;;;;23.20;1.00;;;;;;12546982;28;19929;-35
2023/09/27 13:30:49;;;;;;;;;;;23.00;1.00;;;;;;12550680;28;20354;-35
2023/09/27 13:36:50;;;;;;;;;;;22.90;1.00;;;;;;12546802;28;19928;-35
2023/09/27 13:42:52;;;;;;;;;;;22.80;1.00;;;;;;12563984;28;19972;-35
2023/09/27 13:48:54;;;;;;;;;;;22.60;1.00;;;;;;12559667;28;20019;-35
2023/09/27 13:54:56;;;;;;;;;;;22.60;1.00;;;;;;12558856;28;20455;-35
2023/09/27 14:00:58;;;;;;;;;;;22.50;1.00;;;;;;12553849;28;20043;-35
2023/09/27 14:07:00;;;;;;;;;;;22.50;1.00;;;;;;12560243;28;19982;-35
2023/09/27 14:13:02;;;;;;;;;;;22.50;1.00;;;;;;12565514;28;19979;-34
2023/09/27 14:19:04;;;;;;;;;;;22.30;1.00;;;;;;12551389;28;19934;-35
2023/09/27 14:25:08;;;;;;;;;;;22.30;1.00;;;;;;12563735;28;19928;-35
2023/09/27 14:31:10;;;;;;;;;;;22.40;1.00;;;;;;12550682;28;19928;-35
2023/09/27 14:37:12;;;;;;;;;;;22.30;1.00;;;;;;12555581;28;19975;-35
2023/09/27 14:43:13;;;;;;;;;;;22.20;1.00;;;;;;12555753;28;19929;-35
2023/09/27 14:49:16;;;;;;;;;;;22.30;1.00;;;;;;12548829;28;20023;-35
2023/09/27 14:55:18;;;;;;;;;;;22.30;1.00;;;;;;12559973;28;19963;-35
2023/09/27 15:01:20;;;;;;;;;;;22.30;1.00;;;;;;12566014;28;20280;-35
2023/09/27 15:07:22;;;;;;;;;;;22.50;1.00;;;;;;12556403;28;20371;-35
2023/09/27 15:13:24;;;;;;;;;;;22.30;1.00;;;;;;12544205;28;19963;-35
2023/09/27 15:19:25;;;;;;;;;;;22.20;1.00;;;;;;12525012;28;19928;-35
2023/09/27 15:25:27;;;;;;;;;;;22.00;1.00;;;;;;12541255;28;19934;-35
2023/09/27 15:31:29;;;;;;;;;;;21.90;1.00;;;;;;12528643;28;19935;-35
2023/09/27 15:37:31;;;;;;;;;;;21.80;1.00;;;;;;12561564;28;20304;-36
2023/09/27 15:43:33;;;;;;;;;;;21.80;1.00;;;;;;12539321;28;19940;-35
2023/09/27 15:49:34;;;;;;;;;;;21.90;1.00;;;;;;12547129;28;19979;-35
2023/09/27 15:55:36;;;;;;;;;;;21.90;1.00;;;;;;12553435;28;19994;-35
2023/09/27 16:01:38;;;;;;;;;;;22.00;1.00;;;;;;12552274;28;20380;-35
2023/09/27 16:07:40;;;;;;;;;;;22.10;1.00;;;;;;12545018;28;19928;-35
2023/09/27 16:13:42;;;;;;;;;;;22.20;1.00;;;;;;12562499;28;19928;-35
2023/09/27 16:19:44;;;;;;;;;;;22.00;1.00;;;;;;12538199;28;19971;-35
2023/09/27 16:25:46;;;;;;;;;;;21.70;8.50;;;;;;12556349;28;20626;-35
2023/09/27 16:31:48;;;;;;;;;;;21.40;21.80;;;;;;12553967;28;19935;-35
2023/09/27 16:37:50;;;;;;;;;;;21.40;29.00;;;;;;12555101;28;19928;-35
2023/09/27 16:43:52;;;;;;;;;;;21.40;56.40;;;;;;12562080;28;20443;-35
2023/09/27 16:49:54;;;;;;;;;;;21.30;44.50;;;;;;12553270;28;20517;-35
2023/09/27 16:55:56;;;;;;;;;;;21.10;64.70;;;;;;12533537;28;20074;-35
2023/09/27 17:01:58;;;;;;;;;;;20.70;98.40;;;;;;12562386;28;19951;-35
2023/09/27 17:08:00;;;;;;;;;;;20.60;99.80;;;;;;12538727;28;20015;-34
2023/09/27 17:14:02;;;;;;;;;;;20.50;99.90;;;;;;12558016;28;19936;-34
2023/09/27 17:20:05;;;;;;;;;;;19.90;99.90;;;;;;12555849;28;19982;-35
2023/09/27 17:26:06;;;;;;;;;;;19.50;99.90;;;;;;12556819;28;19962;-35
2023/09/27 17:32:08;;;;;;;;;;;19.30;99.90;;;;;;12560368;28;19925;-34
2023/09/27 17:38:10;;;;;;;;;;;18.90;99.90;;;;;;12559312;28;20719;-34
2023/09/27 17:44:12;;;;;;;;;;;18.80;99.90;;;;;;12539298;28;19990;-34
2023/09/27 17:50:14;;;;;;;;;;;18.80;99.90;;;;;;12545159;28;20491;-34
2023/09/27 17:56:16;;;;;;;;;;;19.00;99.90;;;;;;12567910;28;20412;-34
2023/09/27 18:02:17;;;;;;;;;;;19.20;99.90;;;;;;12565374;28;20015;-35
2023/09/27 18:08:19;;;;;;;;;;;18.90;99.90;;;;;;12568631;28;19929;-34
2023/09/27 18:14:22;;;;;;;;;;;18.90;99.90;;;;;;12566631;28;19928;-34
2023/09/27 18:20:24;;;;;;;;;;;19.00;99.90;;;;;;12523681;28;19932;-35
2023/09/27 18:26:26;;;;;;;;;;;18.80;99.90;;;;;;12557347;28;19967;-34
2023/09/27 18:32:28;;;;;;;;;;;18.60;99.90;;;;;;12544892;28;20304;-34
2023/09/27 18:38:30;;;;;;;;;;;18.40;99.90;;;;;;12552406;28;19929;-34
2023/09/27 18:44:31;;;;;;;;;;;18.30;99.90;;;;;;12550909;28;19988;-34
2023/09/27 18:50:34;;;;;;;;;;;18.30;96.80;;;;;;12543302;28;20047;-34
2023/09/27 18:56:35;;;;;;;;;;;18.40;82.30;;;;;;12553769;28;19932;-35
2023/09/27 19:02:37;;;;;;;;;;;18.60;60.00;;;;;;12539509;28;20448;-35
2023/09/27 19:08:39;;;;;;;;;;;18.70;52.70;;;;;;12545002;28;20023;-35
2023/09/27 19:14:40;;;;;;;;;;;18.80;99.90;;;;;;12561404;28;19928;-34
2023/09/27 19:20:42;;;;;;;;;;;18.80;63.70;;;;;;12546475;28;20438;-35
2023/09/27 19:26:44;;;;;;;;;;;18.90;60.30;;;;;;12550475;28;19970;-35
2023/09/27 19:32:46;;;;;;;;;;;19.00;56.60;;;;;;12539492;28;19964;-35
2023/09/27 19:38:48;;;;;;;;;;;19.00;46.00;;;;;;12561739;28;19932;-35
2023/09/27 19:44:50;;;;;;;;;;;19.10;37.90;;;;;;12543366;28;19928;-35
2023/09/27 19:50:51;;;;;;;;;;;19.20;23.10;;;;;;12529587;28;19932;-35
2023/09/27 19:56:53;;;;;;;;;;;19.40;12.90;;;;;;12541311;28;19986;-35
2023/09/27 20:02:55;;;;;;;;;;;19.40;6.20;;;;;;12551580;28;20430;-35
2023/09/27 20:08:56;;;;;;;;;;;19.50;1.00;;;;;;12552042;28;20484;-35
2023/09/27 20:14:58;;;;;;;;;;;19.40;2.40;;;;;;12555772;28;19935;-35
2023/09/27 20:21:00;;;;;;;;;;;19.50;18.40;;;;;;12548285;28;19974;-35
2023/09/27 20:27:02;;;;;;;;;;;19.40;31.60;;;;;;12563680;28;20367;-35
2023/09/27 20:33:05;;;;;;;;;;;19.30;50.30;;;;;;12543151;28;20304;-35
2023/09/27 20:39:08;;;;;;;;;;;19.20;50.90;;;;;;12542068;28;19929;-35
2023/09/27 20:45:10;;;;;;;;;;;19.20;99.90;;;;;;12535653;28;20317;-35
2023/09/27 20:51:13;;;;;;;;;;;19.10;92.30;;;;;;12531259;28;19929;-35
2023/09/27 20:57:15;;;;;;;;;;;19.10;99.90;;;;;;12554821;28;20334;-35
2023/09/27 21:03:17;;;;;;;;;;;19.00;99.90;;;;;;12556788;28;19939;-35
2023/09/27 21:09:19;;;;;;;;;;;19.00;99.90;;;;;;12562815;28;19960;-35
2023/09/27 21:15:21;;;;;;;;;;;18.80;99.90;;;;;;12557256;28;20294;-35
2023/09/27 21:21:23;;;;;;;;;;;18.70;99.90;;;;;;12547654;28;19932;-34
2023/09/27 21:27:24;;;;;;;;;;;18.60;99.90;;;;;;12543481;28;19928;-34
2023/09/27 21:33:26;;;;;;;;;;;18.30;93.80;;;;;;12549691;28;20415;-35
2023/09/27 21:39:28;;;;;;;;;;;17.90;99.90;;;;;;12543838;28;20573;-34
2023/09/27 21:45:30;;;;;;;;;;;17.70;99.90;;;;;;12535710;28;20015;-35
2023/09/27 21:51:32;;;;;;;;;;;17.90;99.90;;;;;;12551109;28;19955;-34
2023/09/27 21:57:34;;;;;;;;;;;17.80;99.90;;;;;;12534776;28;20376;-35
2023/09/27 22:03:36;;;;;;;;;;;18.10;99.90;;;;;;12538596;28;19924;-35
2023/09/27 22:09:38;;;;;;;;;;;17.90;99.90;;;;;;12541385;28;19929;-35
2023/09/27 22:15:43;;;;;;;;;;;18.00;99.90;;;;;;12570426;28;19925;-35
2023/09/27 22:21:46;;;;;;;;;;;17.70;99.90;;;;;;12541703;28;19939;-35
2023/09/27 22:27:51;;;;;;;;;;;17.60;99.90;;;;;;12559611;28;19932;-35
2023/09/27 22:33:56;;;;;;;;;;;17.70;99.90;;;;;;12555494;28;19960;-34
2023/09/27 22:39:59;;;;;;;;;;;17.60;99.90;;;;;;12555223;28;19982;-35
2023/09/27 22:46:16;;;;;;;;;;;17.60;99.90;;;;;;12555190;28;19998;-34
2023/09/27 22:52:19;;;;;;;;;;;17.40;99.90;;;;;;12542774;28;20405;-34
2023/09/27 22:58:22;;;;;;;;;;;17.50;99.90;;;;;;12561326;28;19974;-35
2023/09/27 23:04:23;;;;;;;;;;;17.40;99.90;;;;;;12538866;28;19924;-35
2023/09/27 23:10:25;;;;;;;;;;;17.30;99.90;;;;;;12561640;28;19928;-35
2023/09/27 23:16:33;;;;;;;;;;;17.40;99.90;;;;;;12564309;28;20440;-35
2023/09/27 23:22:56;;;;;;;;;;;17.40;99.90;;;;;;12564194;28;19932;-35
2023/09/27 23:35:17;;;;;;;;;;;17.60;99.90;;;;;;12542384;28;19929;-35
2023/09/27 23:41:19;;;;;;;;;;;17.60;99.90;;;;;;12550137;28;20376;-35
2023/09/27 23:47:22;;;;;;;;;;;17.80;99.90;;;;;;12545934;28;19934;-35
2023/09/27 23:53:24;;;;;;;;;;;17.90;99.90;;;;;;12550766;28;19929;-35
2023/09/27 23:59:30;;;;;;;;;;;17.90;99.90;;;;;;12538955;28;19964;-35
